Time,TemperatureF,DewpointF,PressureIn,WindDirection,WindDirectionDegrees,WindSpeedMPH,WindSpeedGustMPH,Humidity,HourlyPrecipIn,Conditions,Clouds,dailyrainin,SoftwareType,DateUTC
2013-03-15 00:00:00,34.0,-8.8,29.94,WNW,289,5.8,5.8,15,0.00,,---,0.00,VWS V14.01,2013-03-15 04:00:00,
2013-03-15 00:05:00,34.0,-8.8,29.94,WNW,285,6.3,6.3,15,0.00,,---,0.00,VWS V14.01,2013-03-15 04:05:00,
2013-03-15 00:10:00,33.8,-8.9,29.94,West,277,3.6,3.6,15,0.00,,---,0.00,VWS V14.01,2013-03-15 04:10:00,
2013-03-15 00:15:00,33.6,-9.1,29.94,West,271,5.8,5.8,15,0.00,,---,0.00,VWS V14.01,2013-03-15 04:15:00,
2013-03-15 00:20:00,33.6,-9.1,29.94,WNW,291,6.3,6.3,15,0.00,,---,0.00,VWS V14.01,2013-03-15 04:20:00,
2013-03-15 00:25:00,33.4,-9.2,29.94,West,280,5.8,5.8,15,0.00,,---,0.00,VWS V14.01,2013-03-15 04:25:00,
2013-03-15 00:30:00,33.3,-9.4,29.94,West,272,7.6,7.6,15,0.00,,---,0.00,VWS V14.01,2013-03-15 04:30:00,
2013-03-15 00:35:00,33.1,-9.5,29.94,WSW,248,5.4,5.4,15,0.00,,---,0.00,VWS V14.01,2013-03-15 04:35:00,
2013-03-15 00:40:00,32.9,-9.7,29.94,WSW,257,6.3,6.3,15,0.00,,---,0.00,VWS V14.01,2013-03-15 04:40:00,
2013-03-15 00:45:00,32.7,-9.8,29.94,West,271,4.0,4.0,15,0.00,,---,0.00,VWS V14.01,2013-03-15 04:45:00,
2013-03-15 00:50:00,32.4,-10.1,29.94,WSW,255,5.4,5.4,15,0.00,,---,0.00,VWS V14.01,2013-03-15 04:50:00,
2013-03-15 00:55:00,32.2,-10.3,29.94,WSW,257,4.0,4.0,15,0.00,,---,0.00,VWS V14.01,2013-03-15 04:55:00,
2013-03-15 01:00:00,31.8,-10.6,29.94,WSW,249,4.0,4.0,15,0.00,,---,0.00,VWS V14.01,2013-03-15 05:00:00,
2013-03-15 01:05:00,31.8,-10.6,29.94,WSW,251,5.4,5.4,15,0.00,,---,0.00,VWS V14.01,2013-03-15 05:05:00,
2013-03-15 01:10:00,31.8,-10.6,29.94,North,349,5.4,5.4,15,0.00,,---,0.00,VWS V14.01,2013-03-15 05:10:00,
2013-03-15 01:15:00,32.0,-10.4,29.94,WNW,292,4.9,4.9,15,0.00,,---,0.00,VWS V14.01,2013-03-15 05:15:00,
2013-03-15 01:20:00,31.8,-10.6,29.94,West,259,3.6,3.6,15,0.00,,---,0.00,VWS V14.01,2013-03-15 05:20:00,
2013-03-15 01:25:00,31.5,-10.9,29.94,WNW,283,3.6,3.6,15,0.00,,---,0.00,VWS V14.01,2013-03-15 05:25:00,
2013-03-15 01:30:00,31.1,-11.1,29.94,NNW,327,2.7,2.7,15,0.00,,---,0.00,VWS V14.01,2013-03-15 05:30:00,
2013-03-15 01:35:00,30.9,-11.3,29.94,NW,326,4.0,4.0,15,0.00,,---,0.00,VWS V14.01,2013-03-15 05:35:00,
2013-03-15 01:40:00,30.9,-11.3,29.94,NNW,341,4.9,4.9,15,0.00,,---,0.00,VWS V14.01,2013-03-15 05:40:00,
2013-03-15 01:45:00,30.9,-11.3,29.94,WNW,288,4.0,4.0,15,0.00,,---,0.00,VWS V14.01,2013-03-15 05:45:00,
2013-03-15 01:50:00,30.7,-11.4,29.94,WNW,290,5.8,5.8,15,0.00,,---,0.00,VWS V14.01,2013-03-15 05:50:00,
2013-03-15 01:55:00,30.7,-11.4,29.94,WNW,283,4.9,4.9,15,0.00,,---,0.00,VWS V14.01,2013-03-15 05:55:00,
2013-03-15 02:00:00,30.6,-11.6,29.94,WNW,292,5.8,5.8,15,0.00,,---,0.00,VWS V14.01,2013-03-15 06:00:00,
2013-03-15 02:05:00,30.6,-11.6,29.94,NW,304,3.1,3.1,15,0.00,,---,0.00,VWS V14.01,2013-03-15 06:05:00,
2013-03-15 02:10:00,30.6,-11.6,29.94,WSW,258,3.1,3.1,15,0.00,,---,0.00,VWS V14.01,2013-03-15 06:10:00,
2013-03-15 02:15:00,30.4,-11.7,29.94,WNW,285,7.6,7.6,15,0.00,,---,0.00,VWS V14.01,2013-03-15 06:15:00,
2013-03-15 02:20:00,30.6,-11.6,29.94,NW,314,0.0,0.0,15,0.00,,---,0.00,VWS V14.01,2013-03-15 06:20:00,
2013-03-15 02:25:00,30.2,-11.9,29.94,West,280,4.0,4.0,15,0.00,,---,0.00,VWS V14.01,2013-03-15 06:25:00,
2013-03-15 02:30:00,30.2,-11.9,29.94,WNW,286,5.8,5.8,15,0.00,,---,0.00,VWS V14.01,2013-03-15 06:30:00,
2013-03-15 02:35:00,30.2,-11.9,29.94,West,267,6.3,6.3,15,0.00,,---,0.00,VWS V14.01,2013-03-15 06:35:00,
2013-03-15 02:40:00,30.2,-11.9,29.94,West,268,6.3,6.3,15,0.00,,---,0.00,VWS V14.01,2013-03-15 06:40:00,
2013-03-15 02:45:00,30.0,-12.0,29.94,West,263,3.6,3.6,15,0.00,,---,0.00,VWS V14.01,2013-03-15 06:45:00,
2013-03-15 02:50:00,29.8,-12.2,29.94,West,276,6.3,6.3,15,0.00,,---,0.00,VWS V14.01,2013-03-15 06:50:00,
2013-03-15 02:55:00,30.0,-12.0,29.94,West,273,5.4,5.4,15,0.00,,---,0.00,VWS V14.01,2013-03-15 06:55:00,
2013-03-15 03:00:00,30.2,-11.9,29.94,West,274,5.4,5.4,15,0.00,,---,0.00,VWS V14.01,2013-03-15 07:00:00,
2013-03-15 03:05:00,30.2,-11.9,29.94,WSW,251,4.0,4.0,15,0.00,,---,0.00,VWS V14.01,2013-03-15 07:05:00,
2013-03-15 03:10:00,30.2,-11.9,29.94,NW,305,4.0,4.0,15,0.00,,---,0.00,VWS V14.01,2013-03-15 07:10:00,
2013-03-15 03:15:00,30.2,-11.9,29.94,WNW,295,3.1,3.1,15,0.00,,---,0.00,VWS V14.01,2013-03-15 07:15:00,
2013-03-15 03:20:00,30.0,-12.0,29.94,WNW,295,5.4,5.4,15,0.00,,---,0.00,VWS V14.01,2013-03-15 07:20:00,
2013-03-15 03:25:00,30.0,-12.0,29.94,West,261,5.8,5.8,15,0.00,,---,0.00,VWS V14.01,2013-03-15 07:25:00,
2013-03-15 03:30:00,29.8,-12.2,29.94,WNW,296,4.9,4.9,15,0.00,,---,0.00,VWS V14.01,2013-03-15 07:30:00,
2013-03-15 03:36:00,29.8,-12.2,29.94,West,281,6.3,6.3,15,0.00,,---,0.00,VWS V14.01,2013-03-15 07:36:00,
2013-03-15 03:41:00,29.7,-12.3,29.94,West,261,4.9,4.9,15,0.00,,---,0.00,VWS V14.01,2013-03-15 07:41:00,
2013-03-15 03:46:00,29.5,-12.5,29.94,WNW,299,3.1,3.1,15,0.00,,---,0.00,VWS V14.01,2013-03-15 07:46:00,
2013-03-15 03:51:00,29.5,-12.5,29.94,West,273,3.6,3.6,15,0.00,,---,0.00,VWS V14.01,2013-03-15 07:51:00,
2013-03-15 06:03:00,29.1,-9.1,29.94,West,259,10.1,10.1,18,0.00,,---,0.00,VWS V14.01,2013-03-15 10:03:00,
2013-03-15 06:08:00,29.1,-9.1,29.94,WSW,251,8.3,8.3,18,0.00,,---,0.00,VWS V14.01,2013-03-15 10:08:00,
2013-03-15 06:13:00,29.3,-8.9,29.97,WNW,292,2.7,2.7,18,0.00,,---,0.00,VWS V14.01,2013-03-15 10:13:00,
2013-03-15 06:18:00,29.1,-9.1,29.97,SSW,209,4.0,4.0,18,0.00,,---,0.00,VWS V14.01,2013-03-15 10:18:00,
2013-03-15 06:23:00,29.1,-9.1,29.97,SW,227,4.0,4.0,18,0.00,,---,0.00,VWS V14.01,2013-03-15 10:23:00,
2013-03-15 06:28:00,29.1,-9.1,29.97,West,273,4.9,4.9,18,0.00,,---,0.00,VWS V14.01,2013-03-15 10:28:00,
2013-03-15 06:33:00,28.9,-9.2,29.97,SW,219,7.2,7.2,18,0.00,,---,0.00,VWS V14.01,2013-03-15 10:33:00,
2013-03-15 06:38:00,28.8,-9.4,29.97,SW,224,5.4,5.4,18,0.00,,---,0.00,VWS V14.01,2013-03-15 10:38:00,
2013-03-15 06:43:00,28.8,-9.4,29.97,West,278,5.4,5.4,18,0.00,,---,0.00,VWS V14.01,2013-03-15 10:43:00,
2013-03-15 06:48:00,28.6,-9.5,29.97,WNW,301,5.4,5.4,18,0.00,,---,0.00,VWS V14.01,2013-03-15 10:48:00,
2013-03-15 06:53:00,28.4,-9.7,29.97,SW,233,6.3,6.3,18,0.00,,---,0.00,VWS V14.01,2013-03-15 10:53:00,
2013-03-15 06:58:00,28.6,-9.5,29.97,West,267,11.0,11.0,18,0.00,,---,0.00,VWS V14.01,2013-03-15 10:58:00,
2013-03-15 07:03:00,28.6,-9.5,29.97,WNW,287,7.6,7.6,18,0.00,,---,0.00,VWS V14.01,2013-03-15 11:03:00,
2013-03-15 07:08:00,28.6,-9.5,29.97,SW,223,6.3,6.3,18,0.00,,---,0.00,VWS V14.01,2013-03-15 11:08:00,
2013-03-15 07:13:00,28.4,-9.7,29.97,WSW,254,8.7,8.7,18,0.00,,---,0.00,VWS V14.01,2013-03-15 11:13:00,
2013-03-15 07:18:00,28.2,-9.8,29.97,WSW,252,8.1,8.1,18,0.00,,---,0.00,VWS V14.01,2013-03-15 11:18:00,
2013-03-15 07:23:00,28.4,-9.7,29.97,WSW,239,8.3,8.3,18,0.00,,---,0.00,VWS V14.01,2013-03-15 11:23:00,
2013-03-15 07:28:00,28.2,-9.8,29.97,WNW,285,5.8,5.8,18,0.00,,---,0.00,VWS V14.01,2013-03-15 11:28:00,
2013-03-15 07:33:00,28.2,-9.8,29.97,West,270,4.9,4.9,18,0.00,,---,0.00,VWS V14.01,2013-03-15 11:33:00,
2013-03-15 07:38:00,28.2,-9.8,29.97,West,274,8.3,8.3,18,0.00,,---,0.00,VWS V14.01,2013-03-15 11:38:00,
2013-03-15 07:43:00,28.4,-6.5,29.97,West,281,10.5,10.5,21,0.00,,---,0.00,VWS V14.01,2013-03-15 11:43:00,
2013-03-15 07:48:00,28.6,-9.5,29.97,West,280,7.6,7.6,18,0.00,,---,0.00,VWS V14.01,2013-03-15 11:48:00,
2013-03-15 07:53:00,28.9,-7.1,29.97,WSW,255,5.8,5.8,20,0.00,,---,0.00,VWS V14.01,2013-03-15 11:53:00,
2013-03-15 07:58:00,29.1,-6.9,29.97,WNW,288,8.1,8.1,20,0.00,,---,0.00,VWS V14.01,2013-03-15 11:58:00,
2013-03-15 08:03:00,29.5,-8.8,29.97,WNW,285,6.3,6.3,18,0.00,,---,0.00,VWS V14.01,2013-03-15 12:03:00,
2013-03-15 08:08:00,30.2,-8.2,29.97,WSW,255,4.0,4.0,18,0.00,,---,0.00,VWS V14.01,2013-03-15 12:08:00,
2013-03-15 16:27:00,30.7,-7.7,29.74,WSW,256,6.3,6.3,18,0.00,,---,0.00,VWS V14.01,2013-03-15 20:27:00,
2013-03-15 16:32:00,48.4,1.4,29.74,WSW,246,11.9,11.9,14,0.00,,---,0.00,VWS V14.01,2013-03-15 20:32:00,
2013-03-15 16:37:00,48.4,1.4,29.74,SW,235,5.8,5.8,14,0.00,,---,0.00,VWS V14.01,2013-03-15 20:37:00,
2013-03-15 16:42:00,48.7,1.7,29.74,WSW,252,6.3,6.3,14,0.00,,---,0.00,VWS V14.01,2013-03-15 20:42:00,
2013-03-15 16:47:00,49.3,2.1,29.74,SW,235,7.6,7.6,14,0.00,,---,0.00,VWS V14.01,2013-03-15 20:47:00,
2013-03-15 16:52:00,49.5,2.3,29.74,SSW,195,13.2,13.2,14,0.00,,---,0.00,VWS V14.01,2013-03-15 20:52:00,
2013-03-15 16:57:00,49.6,2.4,29.71,SW,225,16.8,16.8,14,0.00,,---,0.00,VWS V14.01,2013-03-15 20:57:00,
2013-03-15 17:02:00,50.0,2.7,29.71,South,191,8.7,8.7,14,0.00,,---,0.00,VWS V14.01,2013-03-15 21:02:00,
2013-03-15 17:07:00,50.2,2.8,29.71,South,190,6.3,6.3,14,0.00,,---,0.00,VWS V14.01,2013-03-15 21:07:00,
2013-03-15 17:12:00,50.2,2.8,29.71,SW,232,8.3,8.3,14,0.00,,---,0.00,VWS V14.01,2013-03-15 21:12:00,
2013-03-15 17:18:00,49.8,2.5,29.71,SSW,211,14.5,14.5,14,0.00,,---,0.00,VWS V14.01,2013-03-15 21:18:00,
2013-03-15 17:23:00,49.5,2.3,29.71,SW,218,10.1,10.1,14,0.00,,---,0.00,VWS V14.01,2013-03-15 21:23:00,
2013-03-15 17:28:00,49.5,2.3,29.71,SSW,212,13.2,13.2,14,0.00,,---,0.00,VWS V14.01,2013-03-15 21:28:00,
2013-03-15 17:33:00,49.6,2.4,29.71,WSW,250,5.8,5.8,14,0.00,,---,0.00,VWS V14.01,2013-03-15 21:33:00,
2013-03-15 17:38:00,49.8,2.5,29.71,SSW,194,7.6,7.6,14,0.00,,---,0.00,VWS V14.01,2013-03-15 21:38:00,
2013-03-15 17:43:00,49.6,2.4,29.71,WSW,239,17.9,17.9,14,0.00,,---,0.00,VWS V14.01,2013-03-15 21:43:00,
2013-03-15 17:48:00,49.8,2.5,29.71,WSW,246,13.2,13.2,14,0.00,,---,0.00,VWS V14.01,2013-03-15 21:48:00,
2013-03-15 17:53:00,49.8,2.5,29.71,SW,222,10.1,10.1,14,0.00,,---,0.00,VWS V14.01,2013-03-15 21:53:00,
2013-03-15 17:58:00,49.8,2.5,29.71,WSW,241,11.0,11.0,14,0.00,,---,0.00,VWS V14.01,2013-03-15 21:58:00,
2013-03-15 18:03:00,49.6,2.4,29.71,WSW,238,16.8,16.8,14,0.00,,---,0.00,VWS V14.01,2013-03-15 22:03:00,
2013-03-15 18:08:00,49.5,2.3,29.71,SSW,207,11.0,11.0,14,0.00,,---,0.00,VWS V14.01,2013-03-15 22:08:00,
2013-03-15 18:13:00,49.3,2.1,29.68,SW,228,8.1,8.1,14,0.00,,---,0.00,VWS V14.01,2013-03-15 22:13:00,
2013-03-15 18:18:00,49.1,2.0,29.68,SW,227,6.3,6.3,14,0.00,,---,0.00,VWS V14.01,2013-03-15 22:18:00,
2013-03-15 18:23:00,48.9,1.8,29.68,WSW,239,7.2,7.2,14,0.00,,---,0.00,VWS V14.01,2013-03-15 22:23:00,
2013-03-15 18:28:00,48.7,1.7,29.68,West,274,5.8,5.8,14,0.00,,---,0.00,VWS V14.01,2013-03-15 22:28:00,
2013-03-15 18:33:00,48.6,1.5,29.68,SSW,198,8.7,8.7,14,0.00,,---,0.00,VWS V14.01,2013-03-15 22:33:00,
2013-03-15 18:38:00,48.2,1.2,29.68,SSW,198,20.6,20.6,14,0.00,,---,0.00,VWS V14.01,2013-03-15 22:38:00,
2013-03-15 18:43:00,48.2,1.2,29.68,SSW,206,6.3,6.3,14,0.00,,---,0.00,VWS V14.01,2013-03-15 22:43:00,
2013-03-15 18:48:00,47.7,0.8,29.68,SW,218,5.8,5.8,14,0.00,,---,0.00,VWS V14.01,2013-03-15 22:48:00,
2013-03-15 18:53:00,47.5,0.7,29.68,SSW,209,6.3,6.3,14,0.00,,---,0.00,VWS V14.01,2013-03-15 22:53:00,
2013-03-15 18:58:00,47.3,0.5,29.71,SW,223,6.3,6.3,14,0.00,,---,0.00,VWS V14.01,2013-03-15 22:58:00,
2013-03-15 19:03:00,47.3,0.5,29.71,WSW,250,6.3,6.3,14,0.00,,---,0.00,VWS V14.01,2013-03-15 23:03:00,
2013-03-15 19:08:00,46.9,0.2,29.71,SSW,207,3.6,3.6,14,0.00,,---,0.00,VWS V14.01,2013-03-15 23:08:00,
2013-03-15 19:13:00,46.9,0.2,29.71,WSW,246,7.6,7.6,14,0.00,,---,0.00,VWS V14.01,2013-03-15 23:13:00,
2013-03-15 19:18:00,46.8,0.1,29.71,SW,219,5.4,5.4,14,0.00,,---,0.00,VWS V14.01,2013-03-15 23:18:00,
2013-03-15 19:23:00,46.6,-0.1,29.71,SSW,212,3.1,3.1,14,0.00,,---,0.00,VWS V14.01,2013-03-15 23:23:00,
2013-03-15 19:28:00,46.6,-0.1,29.71,SSE,157,3.1,3.1,14,0.00,,---,0.00,VWS V14.01,2013-03-15 23:28:00,
2013-03-15 19:33:00,46.6,-0.1,29.71,SSW,198,3.1,3.1,14,0.00,,---,0.00,VWS V14.01,2013-03-15 23:33:00,
2013-03-15 19:51:00,46.2,1.1,29.71,SSW,199,2.7,2.7,15,0.00,,---,0.00,VWS V14.01,2013-03-15 23:51:00,
2013-03-15 19:56:00,46.2,1.1,29.71,South,182,5.8,5.8,15,0.00,,---,0.00,VWS V14.01,2013-03-15 23:56:00,
2013-03-15 20:01:00,45.9,0.8,29.71,SW,228,4.0,4.0,15,0.00,,---,0.00,VWS V14.01,2013-03-16 00:01:00,
2013-03-15 20:06:00,45.5,0.6,29.71,SW,228,4.0,4.0,15,0.00,,---,0.00,VWS V14.01,2013-03-16 00:06:00,
2013-03-15 20:11:00,45.3,0.4,29.71,SSW,207,4.0,4.0,15,0.00,,---,0.00,VWS V14.01,2013-03-16 00:11:00,
2013-03-15 20:16:00,45.1,0.3,29.71,SW,233,3.1,3.1,15,0.00,,---,0.00,VWS V14.01,2013-03-16 00:16:00,
2013-03-15 20:22:00,45.0,0.1,29.71,SW,216,4.9,4.9,15,0.00,,---,0.00,VWS V14.01,2013-03-16 00:22:00,
2013-03-15 20:27:00,45.0,0.1,29.71,SSW,213,2.7,2.7,15,0.00,,---,0.00,VWS V14.01,2013-03-16 00:27:00,
2013-03-15 20:32:00,45.0,0.1,29.71,SSW,213,5.8,5.8,15,0.00,,---,0.00,VWS V14.01,2013-03-16 00:32:00,
2013-03-15 20:37:00,45.0,0.1,29.71,SSW,210,5.4,5.4,15,0.00,,---,0.00,VWS V14.01,2013-03-16 00:37:00,
2013-03-15 20:42:00,45.0,0.1,29.71,SW,228,7.2,7.2,15,0.00,,---,0.00,VWS V14.01,2013-03-16 00:42:00,
2013-03-15 20:47:00,45.0,0.1,29.71,WSW,243,5.8,5.8,15,0.00,,---,0.00,VWS V14.01,2013-03-16 00:47:00,
2013-03-15 20:52:00,45.0,0.1,29.71,SSW,209,7.6,7.6,15,0.00,,---,0.00,VWS V14.01,2013-03-16 00:52:00,
2013-03-15 20:57:00,44.8,0.0,29.71,SW,224,4.0,4.0,15,0.00,,---,0.00,VWS V14.01,2013-03-16 00:57:00,
2013-03-15 21:02:00,44.8,0.0,29.71,SSW,208,5.8,5.8,15,0.00,,---,0.00,VWS V14.01,2013-03-16 01:02:00,
2013-03-15 21:07:00,45.0,0.1,29.71,SW,216,5.8,5.8,15,0.00,,---,0.00,VWS V14.01,2013-03-16 01:07:00,
2013-03-15 21:12:00,45.0,0.1,29.71,SSW,203,0.0,0.0,15,0.00,,---,0.00,VWS V14.01,2013-03-16 01:12:00,
2013-03-15 21:17:00,44.8,0.0,29.71,SW,214,4.0,4.0,15,0.00,,---,0.00,VWS V14.01,2013-03-16 01:17:00,
2013-03-15 21:22:00,44.8,0.0,29.71,SW,227,2.7,2.7,15,0.00,,---,0.00,VWS V14.01,2013-03-16 01:22:00,
2013-03-15 21:27:00,44.8,0.0,29.71,South,181,5.4,5.4,15,0.00,,---,0.00,VWS V14.01,2013-03-16 01:27:00,
2013-03-15 21:32:00,44.8,0.0,29.71,SSW,203,3.6,3.6,15,0.00,,---,0.00,VWS V14.01,2013-03-16 01:32:00,
2013-03-15 21:37:00,44.8,0.0,29.71,SSW,205,4.0,4.0,15,0.00,,---,0.00,VWS V14.01,2013-03-16 01:37:00,
2013-03-15 21:42:00,44.8,0.0,29.71,SW,218,4.9,4.9,15,0.00,,---,0.00,VWS V14.01,2013-03-16 01:42:00,
2013-03-15 21:47:00,44.8,0.0,29.71,WSW,255,4.0,4.0,15,0.00,,---,0.00,VWS V14.01,2013-03-16 01:47:00,
2013-03-15 21:52:00,44.8,0.0,29.71,SW,224,4.0,4.0,15,0.00,,---,0.00,VWS V14.01,2013-03-16 01:52:00,
2013-03-15 21:57:00,44.6,-0.2,29.71,SW,220,4.9,4.9,15,0.00,,---,0.00,VWS V14.01,2013-03-16 01:57:00,
2013-03-15 22:02:00,44.4,-0.3,29.71,SSW,209,4.0,4.0,15,0.00,,---,0.00,VWS V14.01,2013-03-16 02:02:00,
2013-03-15 22:07:00,44.4,-0.3,29.71,SSW,205,3.1,3.1,15,0.00,,---,0.00,VWS V14.01,2013-03-16 02:07:00,
2013-03-15 22:12:00,44.4,-0.3,29.71,SW,226,3.6,3.6,15,0.00,,---,0.00,VWS V14.01,2013-03-16 02:12:00,
2013-03-15 22:17:00,44.4,-0.3,29.71,SSW,208,3.6,3.6,15,0.00,,---,0.00,VWS V14.01,2013-03-16 02:17:00,
2013-03-15 22:22:00,44.4,-0.3,29.71,SSW,195,6.7,6.7,15,0.00,,---,0.00,VWS V14.01,2013-03-16 02:22:00,
2013-03-15 22:27:00,44.2,-0.5,29.71,SW,221,5.4,5.4,15,0.00,,---,0.00,VWS V14.01,2013-03-16 02:27:00,
2013-03-15 22:33:00,44.1,-0.6,29.74,SW,224,4.9,4.9,15,0.00,,---,0.00,VWS V14.01,2013-03-16 02:33:00,
2013-03-15 22:38:00,43.7,-0.9,29.74,WSW,258,2.7,2.7,15,0.00,,---,0.00,VWS V14.01,2013-03-16 02:38:00,
2013-03-15 22:43:00,43.3,-1.2,29.74,SW,232,3.6,3.6,15,0.00,,---,0.00,VWS V14.01,2013-03-16 02:43:00,
2013-03-15 22:48:00,43.2,-1.4,29.74,WSW,243,3.6,3.6,15,0.00,,---,0.00,VWS V14.01,2013-03-16 02:48:00,
2013-03-15 22:53:00,43.2,-1.4,29.74,WSW,243,2.2,2.2,15,0.00,,---,0.00,VWS V14.01,2013-03-16 02:53:00,
2013-03-15 22:58:00,42.4,-0.6,29.74,WSW,242,0.0,0.0,16,0.00,,---,0.00,VWS V14.01,2013-03-16 02:58:00,
2013-03-15 23:03:00,42.4,-0.6,29.74,WSW,242,0.0,0.0,16,0.00,,---,0.00,VWS V14.01,2013-03-16 03:03:00,
2013-03-15 23:08:00,42.1,-0.9,29.74,WSW,242,3.6,3.6,16,0.00,,---,0.00,VWS V14.01,2013-03-16 03:08:00,
2013-03-15 23:13:00,41.7,-1.2,29.74,WSW,242,0.0,0.0,16,0.00,,---,0.00,VWS V14.01,2013-03-16 03:13:00,
2013-03-15 23:18:00,41.5,-1.3,29.74,WSW,242,5.4,5.4,16,0.00,,---,0.00,VWS V14.01,2013-03-16 03:18:00,
2013-03-15 23:23:00,41.5,-1.3,29.74,SW,227,2.7,2.7,16,0.00,,---,0.00,VWS V14.01,2013-03-16 03:23:00,
2013-03-15 23:28:00,41.7,-1.2,29.74,SW,228,2.7,2.7,16,0.00,,---,0.00,VWS V14.01,2013-03-16 03:28:00,
2013-03-15 23:33:00,41.7,-1.2,29.74,WSW,246,2.7,2.7,16,0.00,,---,0.00,VWS V14.01,2013-03-16 03:33:00,
2013-03-15 23:38:00,41.7,-1.2,29.74,WSW,238,2.7,2.7,16,0.00,,---,0.00,VWS V14.01,2013-03-16 03:38:00,
2013-03-15 23:43:00,41.5,-1.3,29.74,WSW,238,3.1,3.1,16,0.00,,---,0.00,VWS V14.01,2013-03-16 03:43:00,
2013-03-15 23:48:00,41.4,-1.5,29.74,WSW,238,0.0,0.0,16,0.00,,---,0.00,VWS V14.01,2013-03-16 03:48:00,
2013-03-15 23:53:00,41.0,-1.7,29.74,WSW,238,0.0,0.0,16,0.00,,---,0.00,VWS V14.01,2013-03-16 03:53:00,
2013-03-15 23:59:00,40.5,0.3,29.74,WSW,238,0.0,0.0,18,0.00,,---,0.00,VWS V14.01,2013-03-16 03:59:00,